createdAt,value
2019-01-09T00:01:07.278Z,93.41
2019-01-09T00:02:10.470Z,93.41
2019-01-09T00:03:13.182Z,93.88
2019-01-09T00:04:16.402Z,93.88
2019-01-09T00:05:28.146Z,93.94
2019-01-09T00:06:24.798Z,93.92
2019-01-09T00:07:27.591Z,93.92
2019-01-09T00:08:30.943Z,94.26
2019-01-09T00:09:41.639Z,94.49
2019-01-09T00:10:44.457Z,93.97
2019-01-09T00:11:47.674Z,93.83
2019-01-09T00:12:50.451Z,93.30
2019-01-09T00:13:53.196Z,93.45
2019-01-09T00:14:55.913Z,93.45
2019-01-09T00:15:58.722Z,93.50
2019-01-09T00:17:01.537Z,93.25
2019-01-09T00:18:04.716Z,93.25
2019-01-09T00:19:07.514Z,93.24
2019-01-09T00:20:10.221Z,93.02
2019-01-09T00:21:14.322Z,93.19
2019-01-09T00:22:17.248Z,93.33
2019-01-09T00:23:22.860Z,92.99
2019-01-09T00:24:26.161Z,93.01
2019-01-09T00:25:28.950Z,93.14
2019-01-09T00:26:31.756Z,93.20
2019-01-09T00:27:34.505Z,92.86
2019-01-09T00:28:37.275Z,93.33
2019-01-09T00:29:40.053Z,92.94
2019-01-09T00:30:43.103Z,93.21
2019-01-09T00:31:45.906Z,93.21
2019-01-09T00:32:48.609Z,93.33
2019-01-09T00:33:51.408Z,93.23
2019-01-09T00:34:54.209Z,92.86
2019-01-09T00:35:56.957Z,92.75
2019-01-09T00:36:59.837Z,93.01
2019-01-09T00:38:02.821Z,93.01
2019-01-09T00:39:06.566Z,92.91
2019-01-09T00:40:10.140Z,92.44
2019-01-09T00:41:13.785Z,92.54
2019-01-09T00:42:18.525Z,92.92
2019-01-09T00:43:21.841Z,92.92
2019-01-09T00:44:24.692Z,92.30
2019-01-09T00:45:27.507Z,91.76
2019-01-09T00:46:30.264Z,91.76
2019-01-09T00:47:33.182Z,92.51
2019-01-09T00:48:36.448Z,92.51
2019-01-09T00:49:39.226Z,92.87
2019-01-09T00:50:42.314Z,93.21
2019-01-09T00:51:45.030Z,93.45
2019-01-09T00:52:47.839Z,93.45
2019-01-09T00:53:51.120Z,93.39
2019-01-09T00:54:54.207Z,93.72
2019-01-09T00:55:56.937Z,93.69
2019-01-09T00:56:59.689Z,94.14
2019-01-09T00:58:02.477Z,94.33
2019-01-09T00:59:05.380Z,93.82
2019-01-09T01:00:08.178Z,94.10
2019-01-09T01:01:11.348Z,94.29
2019-01-09T01:02:14.149Z,94.57
2019-01-09T01:03:16.943Z,94.67
2019-01-09T01:04:19.664Z,94.95
2019-01-09T01:05:22.537Z,94.82
2019-01-09T01:06:25.333Z,94.59
2019-01-09T01:07:28.850Z,94.82
2019-01-09T01:08:31.597Z,94.65
2019-01-09T01:09:34.407Z,94.82
2019-01-09T01:10:37.199Z,95.17
2019-01-09T01:11:39.912Z,94.94
2019-01-09T01:12:42.702Z,94.86
2019-01-09T01:13:45.814Z,94.86
2019-01-09T01:14:48.618Z,94.84
2019-01-09T01:15:51.414Z,94.49
2019-01-09T01:16:54.197Z,94.77
2019-01-09T01:17:56.950Z,94.39
2019-01-09T01:18:59.767Z,94.67
2019-01-09T01:20:02.794Z,94.67
2019-01-09T01:21:05.513Z,94.69
2019-01-09T01:22:08.259Z,94.69
2019-01-09T01:23:11.052Z,94.89
2019-01-09T01:24:16.248Z,95.09
2019-01-09T01:25:19.009Z,95.09
2019-01-09T01:26:22.088Z,95.41
2019-01-09T01:27:24.873Z,94.96
2019-01-09T01:28:27.570Z,94.69
2019-01-09T01:29:30.371Z,94.99
2019-01-09T01:30:33.185Z,94.62
2019-01-09T01:31:36.017Z,94.98
2019-01-09T01:32:39.328Z,94.98
2019-01-09T01:33:42.367Z,94.85
2019-01-09T01:34:45.332Z,94.85
2019-01-09T01:35:54.688Z,94.50
2019-01-09T01:36:52.820Z,94.11
2019-01-09T01:37:55.677Z,94.11
2019-01-09T01:38:58.981Z,94.28
2019-01-09T01:40:02.540Z,94.28
2019-01-09T01:41:05.454Z,94.47
2019-01-09T01:42:08.300Z,94.47
2019-01-09T01:43:11.213Z,94.95
2019-01-09T01:44:14.363Z,94.70
2019-01-09T01:45:17.552Z,94.70
2019-01-09T01:46:20.301Z,94.99
2019-01-09T01:47:23.042Z,94.79
2019-01-09T01:48:25.777Z,94.89
2019-01-09T01:49:28.627Z,95.10
2019-01-09T01:50:31.330Z,94.93
2019-01-09T01:51:35.103Z,95.00
2019-01-09T01:52:37.865Z,94.73
2019-01-09T01:53:40.600Z,95.00
2019-01-09T01:54:43.469Z,95.04
2019-01-09T01:55:46.186Z,94.95
2019-01-09T01:56:48.898Z,95.36
2019-01-09T01:57:52.161Z,95.08
2019-01-09T01:58:55.063Z,94.89
2019-01-09T01:59:57.982Z,94.99
2019-01-09T02:01:00.947Z,94.75
2019-01-09T02:02:03.739Z,94.62
2019-01-09T02:03:06.453Z,94.67
2019-01-09T02:04:09.721Z,94.95
2019-01-09T02:05:12.990Z,95.13
2019-01-09T02:06:15.783Z,94.61
2019-01-09T02:07:18.653Z,94.50
2019-01-09T02:08:21.916Z,94.99
2019-01-09T02:09:24.781Z,94.70
2019-01-09T02:10:27.928Z,94.80
2019-01-09T02:11:30.696Z,95.13
2019-01-09T02:12:33.509Z,95.54
2019-01-09T02:13:36.674Z,95.47
2019-01-09T02:14:39.503Z,95.39
2019-01-09T02:15:42.350Z,95.81
2019-01-09T02:16:45.580Z,95.60
2019-01-09T02:17:48.444Z,95.55
2019-01-09T02:18:51.691Z,95.55
2019-01-09T02:19:54.438Z,96.55
2019-01-09T02:20:57.283Z,96.16
2019-01-09T02:22:00.003Z,96.39
2019-01-09T02:23:03.287Z,96.75
2019-01-09T02:24:06.029Z,96.34
2019-01-09T02:25:08.820Z,96.39
2019-01-09T02:26:11.570Z,97.16
2019-01-09T02:27:14.389Z,96.41
2019-01-09T02:28:17.168Z,97.09
2019-01-09T02:29:20.252Z,97.09
2019-01-09T02:30:22.996Z,96.96
2019-01-09T02:31:25.852Z,97.15
2019-01-09T02:32:28.575Z,97.35
2019-01-09T02:33:31.296Z,97.35
2019-01-09T02:34:34.067Z,97.18
2019-01-09T02:35:37.278Z,97.27
2019-01-09T02:36:40.124Z,97.27
2019-01-09T02:37:42.848Z,97.06
2019-01-09T02:38:45.696Z,97.06
2019-01-09T02:39:48.907Z,97.39
2019-01-09T02:40:52.080Z,97.37
2019-01-09T02:41:55.439Z,97.26
2019-01-09T02:42:58.221Z,97.06
2019-01-09T02:44:01.210Z,97.40
2019-01-09T02:45:04.080Z,97.40
2019-01-09T02:46:06.940Z,97.27
2019-01-09T02:47:09.746Z,97.39
2019-01-09T02:48:12.911Z,97.51
2019-01-09T02:49:15.976Z,97.51
2019-01-09T02:50:18.798Z,97.41
2019-01-09T02:51:21.690Z,97.32
2019-01-09T02:52:24.429Z,97.50
2019-01-09T02:53:27.309Z,97.63
2019-01-09T02:54:31.647Z,97.36
2019-01-09T02:55:34.846Z,97.43
2019-01-09T02:56:37.635Z,97.28
2019-01-09T02:57:40.369Z,97.58
2019-01-09T02:58:43.131Z,97.13
2019-01-09T02:59:46.023Z,98.05
2019-01-09T03:00:49.656Z,98.05
2019-01-09T03:01:53.129Z,97.66
2019-01-09T03:02:56.391Z,97.79
2019-01-09T03:03:59.182Z,98.03
2019-01-09T03:05:02.145Z,98.14
2019-01-09T03:06:05.366Z,98.20
2019-01-09T03:07:10.498Z,97.88
2019-01-09T03:08:13.265Z,97.74
2019-01-09T03:09:15.997Z,97.98
2019-01-09T03:10:18.777Z,97.95
2019-01-09T03:11:21.654Z,97.93
2019-01-09T03:12:24.495Z,98.56
2019-01-09T03:13:27.769Z,98.17
2019-01-09T03:14:30.579Z,97.87
2019-01-09T03:15:33.366Z,97.87
2019-01-09T03:16:36.091Z,98.37
2019-01-09T03:17:38.912Z,98.19
2019-01-09T03:18:42.259Z,98.27
2019-01-09T03:19:45.773Z,98.18
2019-01-09T03:20:48.499Z,97.94
2019-01-09T03:21:51.552Z,97.63
2019-01-09T03:22:54.374Z,97.74
2019-01-09T03:23:57.176Z,97.50
2019-01-09T03:25:00.174Z,97.68
2019-01-09T03:26:05.043Z,97.24
2019-01-09T03:27:07.836Z,97.64
2019-01-09T03:28:10.544Z,97.85
2019-01-09T03:29:13.424Z,97.36
2019-01-09T03:30:16.190Z,97.36
2019-01-09T03:31:19.602Z,97.62
2019-01-09T03:32:23.001Z,97.62
2019-01-09T03:33:25.842Z,97.06
2019-01-09T03:34:28.564Z,97.11
2019-01-09T03:35:31.715Z,97.27
2019-01-09T03:36:34.520Z,97.44
2019-01-09T03:37:37.251Z,97.20
2019-01-09T03:38:40.395Z,97.22
2019-01-09T03:39:43.129Z,97.41
2019-01-09T03:40:46.217Z,96.79
2019-01-09T03:41:48.936Z,96.81
2019-01-09T03:42:51.695Z,96.55
2019-01-09T03:43:54.497Z,96.71
2019-01-09T03:44:57.582Z,97.00
2019-01-09T03:46:00.390Z,96.98
2019-01-09T03:47:03.196Z,97.15
2019-01-09T03:48:05.986Z,96.78
2019-01-09T03:49:09.038Z,96.78
2019-01-09T03:50:12.033Z,96.78
2019-01-09T03:51:15.330Z,96.81
2019-01-09T03:52:18.369Z,96.34
2019-01-09T03:53:21.692Z,96.44
2019-01-09T03:54:24.388Z,96.12
2019-01-09T03:55:27.487Z,96.35
2019-01-09T03:56:30.190Z,96.58
2019-01-09T03:57:33.234Z,96.03
2019-01-09T03:58:36.058Z,96.35
2019-01-09T03:59:38.777Z,96.21
2019-01-09T04:00:41.513Z,96.08
2019-01-09T04:01:44.713Z,96.39
2019-01-09T04:02:47.912Z,96.17
2019-01-09T04:03:51.839Z,96.62
2019-01-09T04:04:56.219Z,96.57
2019-01-09T04:05:59.190Z,96.37
2019-01-09T04:07:01.901Z,96.47
2019-01-09T04:08:04.681Z,96.16
2019-01-09T04:09:07.681Z,96.08
2019-01-09T04:10:10.776Z,96.37
2019-01-09T04:11:13.652Z,96.46
2019-01-09T04:12:16.485Z,96.16
2019-01-09T04:13:19.336Z,96.16
2019-01-09T04:14:22.134Z,95.96
2019-01-09T04:15:25.056Z,96.07
2019-01-09T04:16:29.795Z,96.01
2019-01-09T04:17:33.111Z,96.24
2019-01-09T04:18:35.840Z,96.07
2019-01-09T04:19:39.038Z,95.69
2019-01-09T04:20:43.539Z,95.83
2019-01-09T04:21:46.533Z,95.72
2019-01-09T04:22:49.680Z,95.36
2019-01-09T04:23:52.401Z,95.65
2019-01-09T04:24:55.219Z,95.56
2019-01-09T04:25:58.346Z,95.77
2019-01-09T04:27:01.200Z,95.46
2019-01-09T04:28:05.320Z,94.95
2019-01-09T04:29:08.678Z,94.95
2019-01-09T04:30:11.525Z,94.86
2019-01-09T04:31:14.399Z,95.23
2019-01-09T04:32:17.195Z,95.17
2019-01-09T04:33:20.393Z,94.89
2019-01-09T04:34:24.900Z,94.97
2019-01-09T04:35:28.148Z,94.58
2019-01-09T04:36:30.884Z,94.24
2019-01-09T04:37:33.636Z,94.45
2019-01-09T04:38:36.540Z,94.44
2019-01-09T04:39:39.282Z,93.86
2019-01-09T04:40:42.096Z,93.86
2019-01-09T04:41:45.202Z,93.56
2019-01-09T04:42:47.943Z,93.56
2019-01-09T04:43:51.153Z,93.51
2019-01-09T04:44:54.011Z,93.62
2019-01-09T04:45:56.721Z,93.37
2019-01-09T04:46:59.487Z,93.28
2019-01-09T04:48:02.639Z,92.82
2019-01-09T04:49:05.504Z,92.89
2019-01-09T04:50:11.533Z,93.00
2019-01-09T04:51:14.382Z,93.00
2019-01-09T04:52:17.132Z,92.83
2019-01-09T04:53:19.898Z,92.73
2019-01-09T04:54:23.175Z,92.23
2019-01-09T04:55:26.155Z,92.26
2019-01-09T04:56:29.125Z,91.92
2019-01-09T04:57:33.800Z,91.55
2019-01-09T04:58:36.630Z,91.34
2019-01-09T04:59:42.160Z,91.80
2019-01-09T05:00:45.168Z,91.56
2019-01-09T05:01:47.962Z,91.39
2019-01-09T05:02:50.673Z,91.71
2019-01-09T05:03:53.722Z,91.18
2019-01-09T05:04:56.518Z,91.21
2019-01-09T05:05:59.691Z,90.18
2019-01-09T05:07:02.911Z,89.64
2019-01-09T05:08:05.618Z,88.86
2019-01-09T05:09:08.768Z,87.99
2019-01-09T05:10:11.659Z,88.39
2019-01-09T05:11:14.549Z,87.72
2019-01-09T05:12:17.357Z,87.84
2019-01-09T05:13:20.916Z,87.74
2019-01-09T05:14:24.095Z,87.53
2019-01-09T05:15:26.973Z,86.82
2019-01-09T05:16:29.907Z,86.88
2019-01-09T05:17:33.452Z,86.27
2019-01-09T05:18:36.227Z,86.29
2019-01-09T05:19:39.506Z,86.34
2019-01-09T05:20:42.738Z,86.83
2019-01-09T05:21:45.777Z,87.04
2019-01-09T05:22:48.623Z,86.81
2019-01-09T05:23:51.369Z,86.81
2019-01-09T05:24:54.199Z,86.95
2019-01-09T05:25:57.352Z,87.04
2019-01-09T05:27:00.142Z,87.04
2019-01-09T05:28:02.860Z,87.24
2019-01-09T05:29:06.048Z,86.62
2019-01-09T05:30:11.089Z,86.73
2019-01-09T05:31:13.903Z,86.67
2019-01-09T05:32:17.139Z,86.98
2019-01-09T05:33:19.886Z,87.46
2019-01-09T05:34:22.701Z,87.01
2019-01-09T05:35:25.518Z,86.82
2019-01-09T05:36:28.222Z,86.30
2019-01-09T05:37:31.014Z,86.30
2019-01-09T05:38:34.308Z,86.48
2019-01-09T05:39:39.737Z,86.14
2019-01-09T05:40:41.869Z,86.21
2019-01-09T05:41:45.132Z,86.50
2019-01-09T05:42:48.065Z,85.81
2019-01-09T05:43:50.861Z,85.68
2019-01-09T05:44:54.037Z,84.83
2019-01-09T05:45:56.810Z,84.83
2019-01-09T05:46:59.523Z,85.02
2019-01-09T05:48:02.330Z,84.43
2019-01-09T05:49:05.126Z,84.74
2019-01-09T05:50:07.845Z,84.70
2019-01-09T05:51:11.243Z,84.70
2019-01-09T05:52:13.967Z,84.34
2019-01-09T05:53:17.455Z,84.12
2019-01-09T05:54:20.222Z,85.03
2019-01-09T05:55:23.036Z,85.04
2019-01-09T05:56:25.735Z,85.05
2019-01-09T05:57:28.887Z,84.87
2019-01-09T05:58:31.686Z,85.02
2019-01-09T05:59:34.500Z,84.71
2019-01-09T06:00:37.869Z,84.86
2019-01-09T06:01:40.650Z,84.47
2019-01-09T06:02:43.390Z,85.18
2019-01-09T06:03:46.184Z,85.12
2019-01-09T06:04:48.963Z,85.14
2019-01-09T06:05:51.688Z,84.62
2019-01-09T06:06:54.532Z,85.39
2019-01-09T06:07:57.236Z,85.20
2019-01-09T06:09:00.324Z,85.44
2019-01-09T06:10:03.541Z,84.61
2019-01-09T06:11:06.348Z,84.32
2019-01-09T06:12:09.665Z,84.90
2019-01-09T06:13:12.375Z,84.85
2019-01-09T06:14:15.083Z,84.85
2019-01-09T06:15:18.143Z,85.04
2019-01-09T06:16:20.943Z,84.65
2019-01-09T06:17:23.681Z,84.63
2019-01-09T06:18:26.847Z,84.86
2019-01-09T06:19:29.708Z,84.38
2019-01-09T06:20:33.046Z,85.06
2019-01-09T06:21:36.456Z,84.87
2019-01-09T06:22:39.178Z,84.81
2019-01-09T06:23:42.009Z,85.05
2019-01-09T06:24:44.883Z,85.04
2019-01-09T06:25:47.609Z,85.31
2019-01-09T06:26:50.321Z,84.92
2019-01-09T06:27:53.493Z,85.71
2019-01-09T06:28:56.291Z,85.66
2019-01-09T06:29:59.158Z,85.66
2019-01-09T06:43:46.611Z,85.24
2019-01-09T06:44:51.194Z,85.18
2019-01-09T06:45:53.899Z,85.17
2019-01-09T06:46:56.629Z,85.22
2019-01-09T06:47:59.349Z,85.26
2019-01-09T06:49:04.087Z,85.24
2019-01-09T06:50:07.465Z,85.52
2019-01-09T06:51:10.258Z,85.54
2019-01-09T06:52:12.986Z,85.50
2019-01-09T06:53:15.745Z,85.83
2019-01-09T06:54:19.422Z,85.47
2019-01-09T06:55:22.764Z,85.34
2019-01-09T06:56:25.558Z,84.99
2019-01-09T06:57:28.349Z,85.79
2019-01-09T06:58:31.117Z,86.14
2019-01-09T06:59:34.132Z,85.49
2019-01-09T07:00:37.146Z,85.57
2019-01-09T07:01:40.267Z,86.05
2019-01-09T07:02:43.061Z,85.76
2019-01-09T07:03:45.867Z,85.95
2019-01-09T07:04:48.725Z,85.60
2019-01-09T07:05:51.467Z,86.06
2019-01-09T07:06:54.228Z,86.10
2019-01-09T07:07:57.635Z,86.10
2019-01-09T07:09:01.052Z,86.31
2019-01-09T07:10:03.798Z,85.92
2019-01-09T07:11:06.695Z,85.92
2019-01-09T07:12:09.499Z,85.92
2019-01-09T07:13:12.316Z,86.23
2019-01-09T07:14:16.619Z,85.93
2019-01-09T07:15:19.455Z,85.72
2019-01-09T07:16:22.232Z,85.86
2019-01-09T07:17:24.962Z,85.85
2019-01-09T07:18:27.712Z,86.15
2019-01-09T07:19:31.090Z,86.15
2019-01-09T07:20:34.238Z,86.66
2019-01-09T07:21:45.188Z,86.53
2019-01-09T07:22:41.799Z,87.06
2019-01-09T07:23:44.594Z,87.10
2019-01-09T07:24:47.324Z,87.10
2019-01-09T07:25:50.583Z,86.62
2019-01-09T07:26:53.475Z,87.06
2019-01-09T07:27:56.282Z,87.12
2019-01-09T07:28:59.502Z,87.36
2019-01-09T07:30:02.338Z,87.34
2019-01-09T07:31:05.440Z,87.08
2019-01-09T07:32:08.757Z,87.20
2019-01-09T07:33:11.724Z,87.22
2019-01-09T07:34:14.425Z,87.00
2019-01-09T07:35:17.130Z,87.00
2019-01-09T07:36:19.910Z,86.91
2019-01-09T07:37:23.052Z,87.17
2019-01-09T07:38:25.914Z,86.62
2019-01-09T07:39:28.730Z,86.08
2019-01-09T07:40:31.537Z,86.08
2019-01-09T07:41:34.352Z,85.91
2019-01-09T07:42:37.136Z,85.14
2019-01-09T07:43:40.013Z,84.69
2019-01-09T07:44:42.811Z,84.69
2019-01-09T07:45:45.669Z,85.00
2019-01-09T07:46:49.078Z,84.99
2019-01-09T07:47:51.906Z,84.47
2019-01-09T07:48:54.794Z,84.42
2019-01-09T07:49:57.995Z,84.16
2019-01-09T07:51:00.741Z,84.52
2019-01-09T07:52:03.693Z,84.16
2019-01-09T07:53:06.506Z,84.06
2019-01-09T07:54:09.387Z,83.91
2019-01-09T07:55:12.144Z,84.13
2019-01-09T07:56:16.886Z,83.93
2019-01-09T07:57:19.893Z,84.23
2019-01-09T07:58:22.707Z,84.23
2019-01-09T07:59:27.908Z,83.92
2019-01-09T08:00:30.994Z,84.59
2019-01-09T08:01:33.858Z,84.04
2019-01-09T08:02:37.231Z,84.11
2019-01-09T08:03:40.176Z,83.55
2019-01-09T08:04:45.476Z,83.20
2019-01-09T08:05:48.211Z,83.04
2019-01-09T08:06:52.054Z,83.44
2019-01-09T08:07:54.848Z,82.78
2019-01-09T08:08:58.139Z,82.94
2019-01-09T08:10:00.965Z,83.07
2019-01-09T08:11:06.028Z,83.07
2019-01-09T08:12:08.916Z,83.32
2019-01-09T08:13:11.769Z,83.09
2019-01-09T08:14:14.634Z,83.51
2019-01-09T08:15:18.053Z,83.64
2019-01-09T08:16:25.510Z,83.96
2019-01-09T08:17:31.220Z,84.04
2019-01-09T08:18:34.260Z,83.62
2019-01-09T08:19:37.556Z,83.57
2019-01-09T08:20:40.394Z,83.46
2019-01-09T08:21:43.538Z,83.41
2019-01-09T08:22:46.301Z,83.59
2019-01-09T08:23:50.926Z,83.59
2019-01-09T08:24:57.225Z,83.80
2019-01-09T08:25:59.949Z,83.38
2019-01-09T08:27:02.730Z,83.73
2019-01-09T08:28:08.856Z,83.73
2019-01-09T08:29:11.676Z,83.62
2019-01-09T08:30:14.967Z,83.66
2019-01-09T08:31:17.757Z,83.55
2019-01-09T08:32:20.782Z,83.76
2019-01-09T08:33:23.712Z,84.12
2019-01-09T08:34:26.883Z,84.08
2019-01-09T08:35:32.037Z,83.85
2019-01-09T08:36:34.912Z,84.17
2019-01-09T08:37:37.773Z,84.17
2019-01-09T08:38:40.747Z,84.48
2019-01-09T08:39:43.714Z,84.48
2019-01-09T08:40:46.972Z,83.82
2019-01-09T08:41:49.909Z,83.82
2019-01-09T08:42:53.006Z,84.16
2019-01-09T08:43:56.279Z,84.67
2019-01-09T08:44:59.135Z,84.37
2019-01-09T08:46:01.913Z,84.84
2019-01-09T08:47:05.359Z,84.84
2019-01-09T08:48:08.127Z,85.13
2019-01-09T08:49:12.842Z,85.42
2019-01-09T08:50:17.360Z,85.79
2019-01-09T08:51:20.483Z,85.79
2019-01-09T08:52:25.380Z,85.66
2019-01-09T08:53:29.199Z,85.73
2019-01-09T08:54:32.096Z,86.33
2019-01-09T08:55:36.574Z,86.33
2019-01-09T08:56:39.405Z,86.17
2019-01-09T08:57:42.587Z,86.17
2019-01-09T08:58:45.416Z,85.94
2019-01-09T08:59:48.659Z,86.32
2019-01-09T09:00:51.561Z,86.23
2019-01-09T09:01:54.515Z,86.01
2019-01-09T09:02:57.308Z,86.05
2019-01-09T09:04:02.539Z,86.62
2019-01-09T09:05:07.641Z,86.04
2019-01-09T09:06:10.360Z,86.34
2019-01-09T09:07:15.653Z,85.61
2019-01-09T09:08:18.111Z,86.00
2019-01-09T09:09:21.344Z,86.02
2019-01-09T09:10:26.164Z,86.02
2019-01-09T09:11:29.277Z,86.46
2019-01-09T09:12:35.509Z,86.46
2019-01-09T09:13:45.911Z,85.88
2019-01-09T09:14:49.311Z,85.84
2019-01-09T09:15:52.596Z,85.47
2019-01-09T09:16:55.362Z,85.27
2019-01-09T09:18:01.645Z,84.68
2019-01-09T09:19:04.479Z,84.15
2019-01-09T09:20:07.270Z,84.12
2019-01-09T09:21:10.186Z,84.12
2019-01-09T09:22:12.917Z,83.40
2019-01-09T09:23:15.665Z,82.61
2019-01-09T09:24:19.140Z,80.05
2019-01-09T09:25:22.603Z,80.05
2019-01-09T09:26:25.444Z,77.89
2019-01-09T09:27:28.231Z,77.45
2019-01-09T09:28:31.363Z,76.67
2019-01-09T09:29:39.502Z,77.13
2019-01-09T09:30:42.329Z,77.22
2019-01-09T09:31:45.115Z,77.09
2019-01-09T09:32:48.057Z,76.89
2019-01-09T09:33:54.372Z,77.65
2019-01-09T09:35:00.091Z,77.65
2019-01-09T09:36:03.654Z,77.25
2019-01-09T09:37:09.153Z,77.32
2019-01-09T09:38:20.514Z,76.85
2019-01-09T09:39:20.415Z,76.77
2019-01-09T09:40:23.480Z,76.56
2019-01-09T09:41:29.485Z,76.57
2019-01-09T09:42:32.724Z,76.27
2019-01-09T09:43:35.495Z,76.72
2019-01-09T09:44:39.246Z,76.72
2019-01-09T09:45:42.233Z,76.46
2019-01-09T09:46:45.323Z,76.05
2019-01-09T09:47:48.385Z,75.90
2019-01-09T09:48:53.498Z,76.09
2019-01-09T09:49:56.345Z,75.93
2019-01-09T09:50:59.192Z,75.86
2019-01-09T09:52:02.038Z,75.32
2019-01-09T09:53:04.827Z,75.54
2019-01-09T09:54:10.622Z,75.54
2019-01-09T09:55:13.736Z,76.02
2019-01-09T09:56:18.415Z,76.17
2019-01-09T09:57:23.271Z,77.09
2019-01-09T09:58:26.190Z,77.10
2019-01-09T09:59:32.851Z,77.10
2019-01-09T10:00:36.164Z,77.88
2019-01-09T10:01:40.609Z,78.16
2019-01-09T10:02:47.343Z,78.70
2019-01-09T10:03:50.081Z,78.85
2019-01-09T10:04:52.831Z,78.84
2019-01-09T10:05:56.354Z,78.90
2019-01-09T10:06:59.122Z,78.92
2019-01-09T10:08:02.752Z,78.99
2019-01-09T10:09:05.602Z,78.65
2019-01-09T10:10:08.356Z,77.58
2019-01-09T10:11:11.316Z,77.58
2019-01-09T10:12:14.178Z,76.70
2019-01-09T10:13:18.002Z,76.64
2019-01-09T10:14:23.567Z,76.30
2019-01-09T10:15:38.603Z,76.13
2019-01-09T10:16:48.340Z,74.15
2019-01-09T10:17:51.572Z,73.68
2019-01-09T10:18:54.523Z,73.84
2019-01-09T10:19:57.802Z,73.92
2019-01-09T10:21:01.202Z,73.58
2019-01-09T10:22:04.198Z,73.83
2019-01-09T10:23:09.977Z,74.23
2019-01-09T10:24:13.858Z,74.40
2019-01-09T10:25:16.714Z,74.40
2019-01-09T10:26:21.570Z,74.28
2019-01-09T10:27:29.823Z,73.68
2019-01-09T10:28:32.625Z,73.68
2019-01-09T10:29:37.289Z,72.52
2019-01-09T10:30:42.756Z,71.49
2019-01-09T10:31:47.780Z,71.53
2019-01-09T10:32:50.602Z,71.95
2019-01-09T10:33:56.685Z,71.75
2019-01-09T10:34:59.639Z,71.75
2019-01-09T10:36:02.607Z,72.20
2019-01-09T10:37:06.602Z,72.01
2019-01-09T10:38:09.320Z,71.79
2019-01-09T10:39:12.175Z,72.12
2019-01-09T10:40:15.453Z,72.05
2019-01-09T10:41:18.301Z,72.26
2019-01-09T10:42:21.160Z,72.68
2019-01-09T10:43:31.174Z,72.32
2019-01-09T10:44:29.768Z,72.70
2019-01-09T10:45:32.549Z,72.36
2019-01-09T10:46:35.400Z,71.99
2019-01-09T10:47:38.318Z,72.65
2019-01-09T10:48:42.883Z,72.38
2019-01-09T10:49:45.629Z,72.79
2019-01-09T10:50:48.642Z,72.63
2019-01-09T10:51:51.476Z,72.15
2019-01-09T10:52:54.814Z,72.15
2019-01-09T10:54:00.710Z,72.02
2019-01-09T10:55:05.967Z,71.64
2019-01-09T10:56:09.239Z,71.27
2019-01-09T10:57:14.497Z,72.09
2019-01-09T10:58:17.417Z,71.68
2019-01-09T10:59:20.151Z,71.68
2019-01-09T11:00:23.659Z,69.58
2019-01-09T11:01:28.147Z,69.58
2019-01-09T11:02:33.130Z,69.40
2019-01-09T11:03:38.051Z,69.40
2019-01-09T11:04:41.198Z,69.27
2019-01-09T11:05:47.158Z,69.27
2019-01-09T11:06:50.289Z,68.55
2019-01-09T11:07:53.138Z,68.40
2019-01-09T11:08:56.160Z,68.73
2019-01-09T11:10:01.178Z,68.73
2019-01-09T11:11:04.469Z,69.83
2019-01-09T11:12:07.365Z,69.14
2019-01-09T11:13:10.670Z,69.66
2019-01-09T11:14:13.462Z,70.12
2019-01-09T11:15:19.298Z,70.12
2019-01-09T11:16:22.688Z,70.20
2019-01-09T11:17:25.404Z,70.34
2019-01-09T11:18:31.183Z,70.32
2019-01-09T11:19:34.074Z,70.10
2019-01-09T11:20:37.049Z,70.50
2019-01-09T11:21:42.783Z,70.85
2019-01-09T11:22:49.144Z,71.17
2019-01-09T11:23:51.875Z,71.62
2019-01-09T11:24:54.598Z,72.11
2019-01-09T11:25:57.343Z,72.09
2019-01-09T11:27:00.279Z,71.66
2019-01-09T11:28:03.155Z,71.77
2019-01-09T11:29:07.331Z,71.20
2019-01-09T11:43:19.861Z,66.39
2019-01-09T11:44:22.694Z,66.61
2019-01-09T11:45:25.540Z,67.37
2019-01-09T11:46:28.508Z,67.86
2019-01-09T11:47:31.846Z,68.71
2019-01-09T11:48:35.062Z,69.34
2019-01-09T11:49:37.917Z,70.20
2019-01-09T11:50:40.811Z,70.20
2019-01-09T11:51:43.687Z,71.22
2019-01-09T11:52:46.477Z,71.39
2019-01-09T11:53:50.292Z,71.38
2019-01-09T11:54:53.683Z,71.60
2019-01-09T11:55:56.557Z,71.60
2019-01-09T11:56:59.677Z,71.78
2019-01-09T11:58:02.483Z,71.78
2019-01-09T11:59:05.879Z,71.56
2019-01-09T12:00:08.696Z,70.52
2019-01-09T12:01:14.293Z,70.06
2019-01-09T12:02:21.951Z,69.36
2019-01-09T12:03:21.828Z,68.86
2019-01-09T12:04:24.586Z,68.14
2019-01-09T12:05:29.156Z,66.26
2019-01-09T12:06:32.572Z,64.78
2019-01-09T12:07:36.015Z,64.02
2019-01-09T12:08:39.651Z,64.02
2019-01-09T12:09:42.548Z,62.82
2019-01-09T12:10:45.477Z,62.94
2019-01-09T12:11:48.842Z,63.20
2019-01-09T12:12:57.269Z,63.51
2019-01-09T12:14:00.227Z,63.61
2019-01-09T12:15:03.027Z,64.48
2019-01-09T12:17:10.687Z,65.63
2019-01-09T12:18:13.400Z,65.23
2019-01-09T12:19:16.489Z,64.86
2019-01-09T12:20:19.204Z,64.98
2019-01-09T12:21:22.017Z,64.98
2019-01-09T12:22:24.961Z,65.03
2019-01-09T12:23:27.710Z,65.05
2019-01-09T12:24:31.491Z,64.79
2019-01-09T12:25:34.685Z,63.06
2019-01-09T12:26:37.745Z,62.31
2019-01-09T12:26:38.033Z,65.02
2019-01-09T12:27:41.036Z,62.31
2019-01-09T12:28:53.470Z,61.18
2019-01-09T12:29:51.165Z,62.16
2019-01-09T12:30:54.730Z,62.69
2019-01-09T12:31:58.214Z,62.89
2019-01-09T12:33:01.144Z,63.81
2019-01-09T12:34:03.961Z,63.82
2019-01-09T12:35:06.759Z,63.82
2019-01-09T12:36:09.595Z,64.11
2019-01-09T12:37:12.389Z,65.02
2019-01-09T12:38:15.735Z,65.38
2019-01-09T12:39:19.221Z,65.29
2019-01-09T12:40:21.995Z,65.15
2019-01-09T12:41:25.101Z,66.15
2019-01-09T12:42:29.819Z,65.77
2019-01-09T12:43:32.664Z,65.96
2019-01-09T12:44:36.030Z,66.10
2019-01-09T12:45:38.923Z,65.96
2019-01-09T12:46:42.038Z,66.53
2019-01-09T12:47:44.834Z,66.07
2019-01-09T12:48:48.605Z,65.47
2019-01-09T12:49:54.444Z,65.77
2019-01-09T12:50:57.499Z,65.75
2019-01-09T12:52:00.304Z,66.06
2019-01-09T12:53:03.251Z,66.63
2019-01-09T12:54:06.221Z,66.84
2019-01-09T12:55:09.807Z,66.80
2019-01-09T12:56:12.716Z,66.67
2019-01-09T12:57:16.158Z,66.66
2019-01-09T12:58:19.470Z,66.58
2019-01-09T12:59:24.168Z,66.91
2019-01-09T13:00:30.014Z,67.36
2019-01-09T13:01:34.539Z,66.63
2019-01-09T13:02:37.729Z,67.52
2019-01-09T13:03:40.755Z,67.66
2019-01-09T13:04:44.042Z,67.79
2019-01-09T13:05:46.810Z,67.88
2019-01-09T13:06:49.713Z,67.80
2019-01-09T13:07:53.047Z,67.80
2019-01-09T13:08:59.048Z,68.22
2019-01-09T13:10:02.015Z,68.45
2019-01-09T13:11:05.644Z,68.45
2019-01-09T13:12:10.195Z,68.36
2019-01-09T13:13:15.819Z,68.36
2019-01-09T13:14:18.980Z,68.70
2019-01-09T13:15:21.685Z,68.70
2019-01-09T13:16:24.514Z,68.60
2019-01-09T13:17:30.261Z,68.55
2019-01-09T13:18:33.235Z,68.81
2019-01-09T13:19:36.059Z,69.04
2019-01-09T13:20:39.265Z,69.18
2019-01-09T13:21:42.053Z,69.08
2019-01-09T13:22:47.714Z,69.19
2019-01-09T13:23:50.924Z,69.37
2019-01-09T13:24:53.945Z,69.68
2019-01-09T13:25:56.799Z,69.51
2019-01-09T13:27:02.939Z,69.29
2019-01-09T13:28:07.404Z,69.46
2019-01-09T13:29:10.301Z,69.39
2019-01-09T13:30:13.354Z,69.73
2019-01-09T13:31:16.871Z,70.05
2019-01-09T13:32:20.068Z,70.05
2019-01-09T13:33:22.872Z,70.11
2019-01-09T13:34:25.828Z,70.83
2019-01-09T13:35:28.743Z,70.90
2019-01-09T13:36:31.780Z,71.21
2019-01-09T13:37:34.510Z,70.80
2019-01-09T13:38:38.317Z,70.80
2019-01-09T13:39:41.179Z,70.74
2019-01-09T13:40:44.130Z,70.87
2019-01-09T13:41:47.178Z,70.67
2019-01-09T13:42:49.999Z,70.62
2019-01-09T13:43:59.195Z,70.45
2019-01-09T13:45:01.845Z,70.81
2019-01-09T13:46:04.723Z,70.67
2019-01-09T13:47:07.841Z,70.71
2019-01-09T13:48:11.794Z,70.71
2019-01-09T13:49:16.632Z,70.91
2019-01-09T13:50:21.940Z,71.08
2019-01-09T13:51:25.842Z,71.19
2019-01-09T13:52:28.679Z,71.64
2019-01-09T13:53:31.426Z,71.50
2019-01-09T13:54:35.543Z,72.04
2019-01-09T13:55:38.587Z,72.01
2019-01-09T13:56:46.481Z,72.01
2019-01-09T13:57:49.195Z,72.65
2019-01-09T13:58:52.557Z,73.36
2019-01-09T13:59:55.385Z,73.20
2019-01-09T14:00:58.194Z,73.41
2019-01-09T14:02:01.102Z,73.59